UAL440 KDCA-KPHL
Flight info
| Callsign | UAL440 |
|---|---|
| Flight time | 0h 35m |
| Altitude | 13000 |
| Route | DOCTR5 DOCTR ODESA |
| Aircraft | B38M/M-SDE1FGHILORVWXY/HB1 |
Departure
| Time | 2026-05-06 01:36 |
|---|---|
| Airport | Ronald Reagan Washington National Airport (KDCA) |
Arrival
| Time | 2026-05-06 02:11 |
|---|---|
| Airport | Philadelphia International Airport (KPHL) |
| Time | Latitude | Longitude | Altitude | Speed | Heading |
|---|---|---|---|---|---|
| 2026-05-06 00:52 | 38.84682 | -77.04349 | 25 ft | 0 kts | 91° |
| 2026-05-06 01:10 | 38.84681 | -77.04352 | 25 ft | 0 kts | 120° |
| 2026-05-06 01:11 | 38.84682 | -77.04356 | 25 ft | 1 kts | 146° |
| 2026-05-06 01:11 | 38.84693 | -77.04361 | 31 ft | 1 kts | 183° |
| 2026-05-06 01:11 | 38.84694 | -77.04361 | 31 ft | 0 kts | 183° |
| 2026-05-06 01:16 | 38.84687 | -77.04362 | 25 ft | 2 kts | 183° |
| 2026-05-06 01:16 | 38.84660 | -77.04365 | 25 ft | 6 kts | 186° |
| 2026-05-06 01:16 | 38.84604 | -77.04363 | 27 ft | 10 kts | 159° |
| 2026-05-06 01:16 | 38.84566 | -77.04284 | 26 ft | 12 kts | 90° |
| 2026-05-06 01:17 | 38.84582 | -77.04169 | 28 ft | 13 kts | 79° |
| 2026-05-06 01:17 | 38.84622 | -77.04050 | 26 ft | 17 kts | 41° |
| 2026-05-06 01:17 | 38.84729 | -77.03979 | 24 ft | 14 kts | 30° |
| 2026-05-06 01:17 | 38.84773 | -77.03891 | 29 ft | 12 kts | 32° |
| 2026-05-06 01:18 | 38.84873 | -77.03888 | 22 ft | 17 kts | 354° |
| 2026-05-06 01:18 | 38.85000 | -77.03902 | 22 ft | 19 kts | 356° |
| 2026-05-06 01:18 | 38.85111 | -77.03912 | 23 ft | 15 kts | 355° |
| 2026-05-06 01:18 | 38.85222 | -77.03923 | 25 ft | 17 kts | 355° |
| 2026-05-06 01:19 | 38.85347 | -77.03937 | 27 ft | 18 kts | 355° |
| 2026-05-06 01:19 | 38.85470 | -77.03949 | 27 ft | 17 kts | 355° |
| 2026-05-06 01:19 | 38.85587 | -77.03961 | 28 ft | 12 kts | 355° |
| 2026-05-06 01:19 | 38.85598 | -77.03962 | 28 ft | 0 kts | 355° |
| 2026-05-06 01:24 | 38.85603 | -77.03963 | 28 ft | 2 kts | 355° |
| 2026-05-06 01:25 | 38.85621 | -77.03964 | 28 ft | 3 kts | 355° |
| 2026-05-06 01:25 | 38.85652 | -77.03967 | 28 ft | 5 kts | 356° |
| 2026-05-06 01:25 | 38.85695 | -77.03971 | 29 ft | 7 kts | 356° |
| 2026-05-06 01:25 | 38.85754 | -77.03977 | 29 ft | 10 kts | 355° |
| 2026-05-06 01:26 | 38.85832 | -77.03985 | 29 ft | 12 kts | 355° |
| 2026-05-06 01:26 | 38.85854 | -77.03987 | 28 ft | 0 kts | 355° |
| 2026-05-06 01:26 | 38.85854 | -77.03988 | 28 ft | 0 kts | 355° |
| 2026-05-06 01:26 | 38.85857 | -77.03988 | 28 ft | 2 kts | 355° |
| 2026-05-06 01:27 | 38.85882 | -77.03990 | 28 ft | 5 kts | 356° |
| 2026-05-06 01:27 | 38.85915 | -77.03993 | 28 ft | 0 kts | 356° |
| 2026-05-06 01:29 | 38.85939 | -77.03995 | 28 ft | 7 kts | 356° |
| 2026-05-06 01:30 | 38.85997 | -77.03987 | 27 ft | 1 kts | 13° |
| 2026-05-06 01:32 | 38.86004 | -77.03985 | 27 ft | 3 kts | 14° |
| 2026-05-06 01:32 | 38.86056 | -77.03963 | 29 ft | 12 kts | 25° |
| 2026-05-06 01:32 | 38.86081 | -77.03889 | 27 ft | 6 kts | 123° |
| 2026-05-06 01:32 | 38.86045 | -77.03867 | 28 ft | 5 kts | 172° |
| 2026-05-06 01:33 | 38.86039 | -77.03866 | 27 ft | 0 kts | 173° |
| 2026-05-06 01:35 | 38.86038 | -77.03866 | 25 ft | 1 kts | 173° |
| 2026-05-06 01:35 | 38.85920 | -77.03852 | 28 ft | 51 kts | 175° |
| 2026-05-06 01:35 | 38.85299 | -77.03807 | 54 ft | 122 kts | 177° |
| 2026-05-06 01:35 | 38.84300 | -77.03660 | 472 ft | 157 kts | 174° |
| 2026-05-06 01:36 | 38.83146 | -77.03423 | 1012 ft | 181 kts | 174° |
| 2026-05-06 01:36 | 38.81925 | -77.03188 | 1980 ft | 175 kts | 178° |
| 2026-05-06 01:36 | 38.80675 | -77.02941 | 2281 ft | 189 kts | 178° |
| 2026-05-06 01:36 | 38.79322 | -77.02669 | 2504 ft | 204 kts | 177° |
| 2026-05-06 01:37 | 38.77881 | -77.02310 | 2963 ft | 220 kts | 168° |
| 2026-05-06 01:37 | 38.76516 | -77.01282 | 3872 ft | 238 kts | 146° |
| 2026-05-06 01:37 | 38.75508 | -76.99490 | 4703 ft | 264 kts | 120° |
| 2026-05-06 01:37 | 38.75164 | -76.97088 | 5337 ft | 291 kts | 98° |
| 2026-05-06 01:38 | 38.75194 | -76.94453 | 6137 ft | 303 kts | 86° |
| 2026-05-06 01:38 | 38.75941 | -76.91887 | 6971 ft | 314 kts | 58° |
| 2026-05-06 01:38 | 38.77487 | -76.89874 | 7855 ft | 315 kts | 32° |
| 2026-05-06 01:38 | 38.79317 | -76.88409 | 8732 ft | 315 kts | 27° |
| 2026-05-06 01:39 | 38.81225 | -76.87011 | 9669 ft | 316 kts | 27° |
| 2026-05-06 01:39 | 38.83122 | -76.85568 | 10412 ft | 321 kts | 28° |
| 2026-05-06 01:39 | 38.85057 | -76.84025 | 10916 ft | 336 kts | 31° |
| 2026-05-06 01:39 | 38.86775 | -76.81853 | 11026 ft | 359 kts | 57° |
| 2026-05-06 01:40 | 38.87952 | -76.79025 | 11032 ft | 360 kts | 64° |
| 2026-05-06 01:40 | 38.88991 | -76.76101 | 11025 ft | 361 kts | 66° |
| 2026-05-06 01:40 | 38.90040 | -76.73166 | 11028 ft | 361 kts | 64° |
| 2026-05-06 01:40 | 38.91146 | -76.70264 | 11025 ft | 362 kts | 63° |
| 2026-05-06 01:41 | 38.92260 | -76.67366 | 11047 ft | 362 kts | 64° |
| 2026-05-06 01:41 | 38.93350 | -76.64449 | 11045 ft | 362 kts | 64° |
| 2026-05-06 01:41 | 38.94416 | -76.61522 | 11049 ft | 362 kts | 68° |
| 2026-05-06 01:41 | 38.95361 | -76.58523 | 11046 ft | 362 kts | 67° |
| 2026-05-06 01:42 | 38.96369 | -76.55562 | 11039 ft | 362 kts | 66° |
| 2026-05-06 01:42 | 38.97370 | -76.52590 | 11044 ft | 362 kts | 67° |
| 2026-05-06 01:42 | 38.98332 | -76.49602 | 11028 ft | 362 kts | 68° |
| 2026-05-06 01:42 | 38.99294 | -76.46600 | 11007 ft | 363 kts | 68° |
| 2026-05-06 01:43 | 39.00271 | -76.43608 | 11008 ft | 363 kts | 66° |
| 2026-05-06 01:43 | 39.01537 | -76.40824 | 11028 ft | 361 kts | 47° |
| 2026-05-06 01:43 | 39.03298 | -76.38545 | 11031 ft | 359 kts | 41° |
| 2026-05-06 01:43 | 39.05144 | -76.36375 | 11021 ft | 359 kts | 40° |
| 2026-05-06 01:44 | 39.06990 | -76.34215 | 11032 ft | 360 kts | 41° |
| 2026-05-06 01:44 | 39.08811 | -76.32006 | 11035 ft | 359 kts | 42° |
| 2026-05-06 01:44 | 39.10619 | -76.29792 | 11014 ft | 359 kts | 41° |
| 2026-05-06 01:44 | 39.12440 | -76.27590 | 10754 ft | 358 kts | 41° |
| 2026-05-06 01:45 | 39.14237 | -76.25430 | 10490 ft | 358 kts | 41° |
| 2026-05-06 01:45 | 39.16050 | -76.23241 | 10226 ft | 357 kts | 41° |
| 2026-05-06 01:45 | 39.17851 | -76.21053 | 9974 ft | 356 kts | 41° |
| 2026-05-06 01:45 | 39.19653 | -76.18867 | 9711 ft | 355 kts | 41° |
| 2026-05-06 01:46 | 39.21447 | -76.16693 | 9432 ft | 353 kts | 41° |
| 2026-05-06 01:46 | 39.23232 | -76.14528 | 9151 ft | 352 kts | 42° |
| 2026-05-06 01:46 | 39.24988 | -76.12392 | 9018 ft | 338 kts | 41° |
| 2026-05-06 01:46 | 39.26656 | -76.10362 | 9011 ft | 322 kts | 41° |
| 2026-05-06 01:47 | 39.28271 | -76.08399 | 9008 ft | 315 kts | 41° |
| 2026-05-06 01:47 | 39.29844 | -76.06486 | 9007 ft | 311 kts | 41° |
| 2026-05-06 01:47 | 39.31433 | -76.04554 | 9012 ft | 313 kts | 41° |
| 2026-05-06 01:47 | 39.33017 | -76.02623 | 9009 ft | 314 kts | 41° |
| 2026-05-06 01:48 | 39.34604 | -76.00687 | 9016 ft | 313 kts | 41° |
| 2026-05-06 01:48 | 39.36188 | -75.98753 | 9006 ft | 314 kts | 41° |
| 2026-05-06 01:48 | 39.37241 | -75.97469 | 9000 ft | 314 kts | 41° |
| 2026-05-06 01:48 | 39.39362 | -75.94877 | 9006 ft | 314 kts | 41° |
| 2026-05-06 01:49 | 39.40949 | -75.92936 | 9017 ft | 313 kts | 41° |
| 2026-05-06 01:49 | 39.42526 | -75.91006 | 9020 ft | 312 kts | 41° |
| 2026-05-06 01:49 | 39.45694 | -75.87127 | 9014 ft | 312 kts | 41° |
| 2026-05-06 01:50 | 39.47268 | -75.85197 | 9013 ft | 312 kts | 41° |
| 2026-05-06 01:50 | 39.48820 | -75.83293 | 9013 ft | 312 kts | 41° |
| 2026-05-06 01:50 | 39.50394 | -75.81362 | 9013 ft | 311 kts | 41° |
| 2026-05-06 01:50 | 39.51966 | -75.79431 | 9012 ft | 312 kts | 41° |
| 2026-05-06 01:51 | 39.53539 | -75.77499 | 9004 ft | 312 kts | 41° |
| 2026-05-06 01:51 | 39.55117 | -75.75559 | 9008 ft | 314 kts | 41° |
| 2026-05-06 01:51 | 39.56697 | -75.73615 | 9009 ft | 313 kts | 41° |
| 2026-05-06 01:51 | 39.58279 | -75.71668 | 9014 ft | 313 kts | 41° |
| 2026-05-06 01:52 | 39.59859 | -75.69724 | 9024 ft | 312 kts | 41° |
| 2026-05-06 01:52 | 39.61407 | -75.67817 | 9010 ft | 301 kts | 41° |
| 2026-05-06 01:52 | 39.62895 | -75.65976 | 9006 ft | 292 kts | 41° |
| 2026-05-06 01:52 | 39.64363 | -75.64160 | 9011 ft | 291 kts | 41° |
| 2026-05-06 01:53 | 39.65828 | -75.62347 | 9006 ft | 290 kts | 41° |
| 2026-05-06 01:53 | 39.67284 | -75.60543 | 9008 ft | 289 kts | 41° |
| 2026-05-06 01:53 | 39.68741 | -75.58738 | 9009 ft | 290 kts | 41° |
| 2026-05-06 01:53 | 39.70197 | -75.56933 | 9010 ft | 289 kts | 41° |
| 2026-05-06 01:54 | 39.71651 | -75.55130 | 9012 ft | 290 kts | 41° |
| 2026-05-06 01:54 | 39.73112 | -75.53320 | 8992 ft | 290 kts | 41° |
| 2026-05-06 01:54 | 39.74077 | -75.52123 | 8876 ft | 290 kts | 41° |
| 2026-05-06 01:54 | 39.75537 | -75.50312 | 8565 ft | 290 kts | 41° |
| 2026-05-06 01:55 | 39.77000 | -75.48498 | 8250 ft | 291 kts | 42° |
| 2026-05-06 01:55 | 39.78463 | -75.46682 | 7933 ft | 291 kts | 41° |
| 2026-05-06 01:55 | 39.79929 | -75.44863 | 7619 ft | 292 kts | 41° |
| 2026-05-06 01:55 | 39.81401 | -75.43037 | 7332 ft | 292 kts | 42° |
| 2026-05-06 01:56 | 39.82873 | -75.41209 | 7037 ft | 292 kts | 41° |
| 2026-05-06 01:56 | 39.84347 | -75.39381 | 6759 ft | 292 kts | 41° |
| 2026-05-06 01:56 | 39.85820 | -75.37553 | 6478 ft | 293 kts | 41° |
| 2026-05-06 01:56 | 39.87294 | -75.35723 | 6189 ft | 293 kts | 41° |
| 2026-05-06 01:57 | 39.88772 | -75.33888 | 5902 ft | 294 kts | 41° |
| 2026-05-06 01:57 | 39.90252 | -75.32049 | 5630 ft | 293 kts | 41° |
| 2026-05-06 01:57 | 39.91726 | -75.30219 | 5371 ft | 293 kts | 41° |
| 2026-05-06 01:57 | 39.93202 | -75.28386 | 5097 ft | 293 kts | 41° |
| 2026-05-06 01:58 | 39.94488 | -75.26343 | 4859 ft | 291 kts | 57° |
| 2026-05-06 01:58 | 39.95527 | -75.24109 | 4741 ft | 285 kts | 60° |
| 2026-05-06 01:58 | 39.96500 | -75.21882 | 4595 ft | 281 kts | 61° |
| 2026-05-06 01:58 | 39.97461 | -75.19674 | 4389 ft | 279 kts | 61° |
| 2026-05-06 01:59 | 39.98425 | -75.17481 | 4193 ft | 278 kts | 61° |
| 2026-05-06 01:59 | 39.99374 | -75.15290 | 4017 ft | 276 kts | 65° |
| 2026-05-06 01:59 | 39.99984 | -75.12943 | 4032 ft | 274 kts | 83° |
| 2026-05-06 01:59 | 40.00281 | -75.10483 | 4029 ft | 275 kts | 87° |
| 2026-05-06 02:00 | 40.00522 | -75.08002 | 4022 ft | 276 kts | 88° |
| 2026-05-06 02:00 | 40.00759 | -75.05527 | 4014 ft | 274 kts | 88° |
| 2026-05-06 02:00 | 40.00995 | -75.03061 | 3943 ft | 273 kts | 88° |
| 2026-05-06 02:00 | 40.01231 | -75.00626 | 3836 ft | 267 kts | 88° |
| 2026-05-06 02:01 | 40.01473 | -74.98236 | 3732 ft | 264 kts | 88° |
| 2026-05-06 02:01 | 40.01726 | -74.95874 | 3558 ft | 263 kts | 88° |
| 2026-05-06 02:01 | 40.01989 | -74.93526 | 3410 ft | 261 kts | 88° |
| 2026-05-06 02:01 | 40.02211 | -74.91239 | 3260 ft | 254 kts | 96° |
| 2026-05-06 02:02 | 40.02005 | -74.89054 | 3057 ft | 227 kts | 124° |
| 2026-05-06 02:02 | 40.01311 | -74.87441 | 3057 ft | 194 kts | 134° |
| 2026-05-06 02:02 | 40.00496 | -74.86111 | 2935 ft | 178 kts | 160° |
| 2026-05-06 02:02 | 39.99460 | -74.85812 | 2857 ft | 139 kts | 204° |
| 2026-05-06 02:03 | 39.98645 | -74.86565 | 3062 ft | 155 kts | 223° |
| 2026-05-06 02:03 | 39.97812 | -74.87506 | 3095 ft | 158 kts | 222° |
| 2026-05-06 02:03 | 39.97001 | -74.88432 | 3155 ft | 153 kts | 222° |
| 2026-05-06 02:03 | 39.96241 | -74.89395 | 2999 ft | 150 kts | 225° |
| 2026-05-06 02:04 | 39.95480 | -74.90239 | 3002 ft | 139 kts | 219° |
| 2026-05-06 02:04 | 39.94743 | -74.90965 | 3075 ft | 129 kts | 220° |
| 2026-05-06 02:04 | 39.94083 | -74.91776 | 2983 ft | 132 kts | 228° |
| 2026-05-06 02:04 | 39.93561 | -74.92740 | 3044 ft | 128 kts | 236° |
| 2026-05-06 02:05 | 39.93204 | -74.93801 | 3011 ft | 130 kts | 247° |
| 2026-05-06 02:05 | 39.92965 | -74.94949 | 3037 ft | 132 kts | 249° |
| 2026-05-06 02:05 | 39.92724 | -74.96136 | 3023 ft | 140 kts | 249° |
| 2026-05-06 02:05 | 39.92475 | -74.97382 | 3062 ft | 146 kts | 249° |
| 2026-05-06 02:06 | 39.92210 | -74.98716 | 3060 ft | 158 kts | 250° |
| 2026-05-06 02:06 | 39.91933 | -75.00174 | 3013 ft | 171 kts | 251° |
| 2026-05-06 02:06 | 39.91649 | -75.01718 | 2991 ft | 181 kts | 251° |
| 2026-05-06 02:06 | 39.91342 | -75.03316 | 2990 ft | 185 kts | 250° |
| 2026-05-06 02:07 | 39.91004 | -75.04942 | 2708 ft | 183 kts | 249° |
| 2026-05-06 02:07 | 39.90685 | -75.06492 | 2508 ft | 170 kts | 250° |
| 2026-05-06 02:07 | 39.90412 | -75.07909 | 2190 ft | 153 kts | 248° |
| 2026-05-06 02:07 | 39.90185 | -75.09116 | 2115 ft | 128 kts | 246° |
| 2026-05-06 02:08 | 39.89960 | -75.10226 | 1820 ft | 126 kts | 245° |
| 2026-05-06 02:08 | 39.89741 | -75.11328 | 1797 ft | 124 kts | 244° |
| 2026-05-06 02:08 | 39.89501 | -75.12453 | 1542 ft | 133 kts | 244° |
| 2026-05-06 02:08 | 39.89282 | -75.13555 | 1376 ft | 116 kts | 245° |
| 2026-05-06 02:09 | 39.89095 | -75.14525 | 1194 ft | 106 kts | 246° |
| 2026-05-06 02:09 | 39.88924 | -75.15501 | 1046 ft | 114 kts | 249° |
| 2026-05-06 02:09 | 39.88729 | -75.16518 | 954 ft | 121 kts | 246° |
| 2026-05-06 02:09 | 39.88486 | -75.17596 | 811 ft | 126 kts | 249° |
| 2026-05-06 02:10 | 39.88250 | -75.18709 | 649 ft | 127 kts | 250° |
| 2026-05-06 02:10 | 39.88037 | -75.19835 | 511 ft | 128 kts | 253° |
| 2026-05-06 02:10 | 39.87809 | -75.20933 | 262 ft | 122 kts | 251° |
| 2026-05-06 02:10 | 39.87585 | -75.22023 | 103 ft | 128 kts | 252° |
| 2026-05-06 02:11 | 39.87370 | -75.23056 | 21 ft | 102 kts | 252° |
| 2026-05-06 02:11 | 39.87226 | -75.23753 | 20 ft | 60 kts | 255° |
| 2026-05-06 02:11 | 39.87159 | -75.24146 | 27 ft | 28 kts | 264° |
| 2026-05-06 02:11 | 39.87171 | -75.24352 | 25 ft | 22 kts | 284° |
| 2026-05-06 02:12 | 39.87203 | -75.24490 | 26 ft | 11 kts | 296° |
| 2026-05-06 02:12 | 39.87269 | -75.24544 | 25 ft | 12 kts | 345° |
| 2026-05-06 02:12 | 39.87361 | -75.24561 | 24 ft | 15 kts | 352° |
| 2026-05-06 02:12 | 39.87431 | -75.24568 | 21 ft | 8 kts | 6° |
| 2026-05-06 02:13 | 39.87492 | -75.24544 | 21 ft | 10 kts | 28° |
| 2026-05-06 02:13 | 39.87520 | -75.24503 | 21 ft | 5 kts | 60° |
| 2026-05-06 02:13 | 39.87537 | -75.24461 | 24 ft | 2 kts | 66° |
| 2026-05-06 02:13 | 39.87540 | -75.24446 | 22 ft | 2 kts | 75° |
| 2026-05-06 02:14 | 39.87541 | -75.24443 | 22 ft | 0 kts | 75° |